createdAt,value
2023-04-17T00:00:56.059Z,25.83
2023-04-17T00:01:56.123Z,25.85
2023-04-17T00:02:56.266Z,25.84
2023-04-17T00:03:56.391Z,25.84
2023-04-17T00:04:56.368Z,25.83
2023-04-17T00:05:56.256Z,25.84
2023-04-17T00:06:56.301Z,25.84
2023-04-17T00:07:56.360Z,25.85
2023-04-17T00:08:56.425Z,25.84
2023-04-17T00:09:56.490Z,25.85
2023-04-17T00:11:04.600Z,25.84
2023-04-17T00:11:57.553Z,25.84
2023-04-17T00:12:56.575Z,25.84
2023-04-17T00:13:56.580Z,25.84
2023-04-17T00:14:56.613Z,25.81
2023-04-17T00:15:56.647Z,25.81
2023-04-17T00:16:56.682Z,25.83
2023-04-17T00:17:56.666Z,25.83
2023-04-17T00:18:56.650Z,25.83
2023-04-17T00:19:56.683Z,25.83
2023-04-17T00:20:56.847Z,25.84
2023-04-17T00:21:56.672Z,25.81
2023-04-17T00:22:56.690Z,25.83
2023-04-17T00:23:56.707Z,25.83
2023-04-17T00:24:56.722Z,25.81
2023-04-17T00:25:56.729Z,25.83
2023-04-17T00:26:56.734Z,25.81
2023-04-17T00:27:56.746Z,25.84
2023-04-17T00:28:56.781Z,25.84
2023-04-17T00:29:56.852Z,25.83
2023-04-17T00:30:56.921Z,25.83
2023-04-17T00:31:57.029Z,25.83
2023-04-17T00:32:57.086Z,25.81
2023-04-17T00:33:57.086Z,25.81
2023-04-17T00:34:57.124Z,25.83
2023-04-17T00:35:57.143Z,25.84
2023-04-17T00:36:57.155Z,25.83
2023-04-17T00:37:57.190Z,25.81
2023-04-17T00:38:57.234Z,25.83
2023-04-17T00:39:57.301Z,25.84
2023-04-17T00:40:57.348Z,25.81
2023-04-17T00:41:57.394Z,25.81
2023-04-17T00:42:57.450Z,25.81
2023-04-17T00:43:57.487Z,25.81
2023-04-17T00:44:57.556Z,25.80
2023-04-17T00:45:57.622Z,25.81
2023-04-17T00:46:57.609Z,25.81
2023-04-17T00:47:57.693Z,25.81
2023-04-17T00:48:57.708Z,25.80
2023-04-17T00:49:57.771Z,25.81
2023-04-17T00:50:57.822Z,25.83
2023-04-17T00:51:57.870Z,25.81
2023-04-17T00:52:57.918Z,25.81
2023-04-17T00:53:57.975Z,25.81
2023-04-17T00:54:57.989Z,25.79
2023-04-17T00:55:58.025Z,25.79
2023-04-17T00:56:58.050Z,25.79
2023-04-17T00:57:58.062Z,25.80
2023-04-17T00:58:58.122Z,25.79
2023-04-17T00:59:58.142Z,25.81
2023-04-17T01:00:58.220Z,25.80
2023-04-17T01:01:58.280Z,25.79
2023-04-17T01:02:58.478Z,25.80
2023-04-17T01:03:58.431Z,25.79
2023-04-17T01:04:58.375Z,25.80
2023-04-17T01:05:58.435Z,25.80
2023-04-17T01:06:58.480Z,25.80
2023-04-17T01:07:58.502Z,25.81
2023-04-17T01:08:58.564Z,25.79
2023-04-17T01:09:58.590Z,25.77
2023-04-17T01:10:58.625Z,25.79
2023-04-17T01:11:58.648Z,25.81
2023-04-17T01:12:58.664Z,25.77
2023-04-17T01:13:58.705Z,25.79
2023-04-17T01:14:58.736Z,25.81
2023-04-17T01:15:58.730Z,25.80
2023-04-17T01:16:58.764Z,25.81
2023-04-17T01:17:58.807Z,25.77
2023-04-17T01:18:58.806Z,25.80
2023-04-17T01:19:58.866Z,25.80
2023-04-17T01:20:58.904Z,25.79
2023-04-17T01:21:58.914Z,25.79
2023-04-17T01:22:58.974Z,25.77
2023-04-17T01:23:58.983Z,25.79
2023-04-17T01:24:59.025Z,25.77
2023-04-17T01:25:59.052Z,25.79
2023-04-17T01:26:59.088Z,25.79
2023-04-17T01:27:59.121Z,25.79
2023-04-17T01:28:59.165Z,25.79
2023-04-17T01:29:59.225Z,25.79
2023-04-17T01:30:59.299Z,25.80
2023-04-17T01:31:59.341Z,25.79
2023-04-17T01:32:59.425Z,25.79
2023-04-17T01:33:59.409Z,25.79
2023-04-17T01:34:59.515Z,25.80
2023-04-17T01:35:59.543Z,25.77
2023-04-17T01:36:59.621Z,25.77
2023-04-17T01:37:59.670Z,25.79
2023-04-17T01:38:59.754Z,25.79
2023-04-17T01:39:59.804Z,25.77
2023-04-17T01:40:59.858Z,25.77
2023-04-17T01:41:59.871Z,25.77
2023-04-17T01:42:59.871Z,25.79
2023-04-17T01:43:59.890Z,25.76
2023-04-17T01:44:59.933Z,25.80
2023-04-17T01:46:00.019Z,25.77
2023-04-17T01:46:59.971Z,25.77
2023-04-17T01:48:00.005Z,25.77
2023-04-17T01:48:59.977Z,25.77
2023-04-17T01:49:59.997Z,25.77
2023-04-17T01:51:00.010Z,25.79
2023-04-17T01:52:00.021Z,25.79
2023-04-17T01:53:00.049Z,25.77
2023-04-17T01:54:00.056Z,25.77
2023-04-17T01:55:00.127Z,25.79
2023-04-17T01:56:00.125Z,25.79
2023-04-17T01:57:00.119Z,25.76
2023-04-17T01:58:00.141Z,25.77
2023-04-17T01:59:00.128Z,25.79
2023-04-17T02:00:00.176Z,25.77
2023-04-17T02:01:00.178Z,25.77
2023-04-17T02:02:00.304Z,25.76
2023-04-17T02:03:00.363Z,25.77
2023-04-17T02:04:00.463Z,25.76
2023-04-17T02:05:00.272Z,25.76
2023-04-17T02:06:00.278Z,25.74
2023-04-17T02:07:00.356Z,25.73
2023-04-17T02:08:00.319Z,25.74
2023-04-17T02:09:00.333Z,25.77
2023-04-17T02:10:00.359Z,25.74
2023-04-17T02:11:00.357Z,25.76
2023-04-17T02:12:00.367Z,25.74
2023-04-17T02:13:00.379Z,25.74
2023-04-17T02:14:00.398Z,25.76
2023-04-17T02:15:00.420Z,25.76
2023-04-17T02:16:00.503Z,25.73
2023-04-17T02:17:00.443Z,25.76
2023-04-17T02:18:00.524Z,25.74
2023-04-17T02:19:00.480Z,25.76
2023-04-17T02:20:00.500Z,25.76
2023-04-17T02:21:00.513Z,25.74
2023-04-17T02:22:00.545Z,25.74
2023-04-17T02:23:00.580Z,25.73
2023-04-17T02:24:00.581Z,25.74
2023-04-17T02:25:00.593Z,25.74
2023-04-17T02:26:00.613Z,25.74
2023-04-17T02:27:00.627Z,25.74
2023-04-17T02:28:00.655Z,25.74
2023-04-17T02:29:00.709Z,25.73
2023-04-17T02:30:00.693Z,25.73
2023-04-17T02:31:00.746Z,25.74
2023-04-17T02:32:00.720Z,25.73
2023-04-17T02:33:00.811Z,25.73
2023-04-17T02:34:00.750Z,25.73
2023-04-17T02:35:00.790Z,25.74
2023-04-17T02:36:00.831Z,25.73
2023-04-17T02:37:00.819Z,25.74
2023-04-17T02:38:00.845Z,25.73
2023-04-17T02:39:00.867Z,25.74
2023-04-17T02:40:00.877Z,25.74
2023-04-17T02:41:00.899Z,25.71
2023-04-17T02:42:00.907Z,25.71
2023-04-17T02:43:00.926Z,25.74
2023-04-17T02:44:00.968Z,25.74
2023-04-17T02:45:00.995Z,25.74
2023-04-17T02:46:01.022Z,25.76
2023-04-17T02:47:01.094Z,25.74
2023-04-17T02:48:01.131Z,25.73
2023-04-17T02:49:01.091Z,25.70
2023-04-17T02:50:01.132Z,25.71
2023-04-17T02:51:01.142Z,25.74
2023-04-17T02:52:01.187Z,25.70
2023-04-17T02:53:01.189Z,25.73
2023-04-17T02:54:01.202Z,25.73
2023-04-17T02:55:01.225Z,25.73
2023-04-17T02:56:01.279Z,25.73
2023-04-17T02:57:01.325Z,25.74
2023-04-17T02:58:01.448Z,25.73
2023-04-17T02:59:01.335Z,25.73
2023-04-17T03:00:01.365Z,25.73
2023-04-17T03:01:01.521Z,25.70
2023-04-17T03:02:01.453Z,25.70
2023-04-17T03:03:01.617Z,25.70
2023-04-17T03:04:01.667Z,25.67
2023-04-17T03:05:01.499Z,25.64
2023-04-17T03:06:01.525Z,25.63
2023-04-17T03:07:01.588Z,25.60
2023-04-17T03:08:01.563Z,25.59
2023-04-17T03:09:01.588Z,25.57
2023-04-17T03:10:01.701Z,25.56
2023-04-17T03:11:01.678Z,25.54
2023-04-17T03:12:01.761Z,25.50
2023-04-17T03:13:01.763Z,25.49
2023-04-17T03:14:01.788Z,25.44
2023-04-17T03:15:01.811Z,25.42
2023-04-17T03:16:01.912Z,25.40
2023-04-17T03:17:01.887Z,25.40
2023-04-17T03:18:01.961Z,25.39
2023-04-17T03:19:02.009Z,25.37
2023-04-17T03:20:02.005Z,25.36
2023-04-17T03:21:02.104Z,25.34
2023-04-17T03:22:02.113Z,25.33
2023-04-17T03:23:02.154Z,25.29
2023-04-17T03:24:02.260Z,25.26
2023-04-17T03:25:02.318Z,25.26
2023-04-17T03:26:02.297Z,25.22
2023-04-17T03:27:02.366Z,25.22
2023-04-17T03:28:02.420Z,25.21
2023-04-17T03:29:02.471Z,25.21
2023-04-17T03:30:02.529Z,25.18
2023-04-17T03:31:02.608Z,25.16
2023-04-17T03:32:02.783Z,25.15
2023-04-17T03:33:02.917Z,25.15
2023-04-17T03:34:02.784Z,25.12
2023-04-17T03:35:02.850Z,25.11
2023-04-17T03:36:02.946Z,25.12
2023-04-17T03:37:02.999Z,25.06
2023-04-17T03:38:03.067Z,25.05
2023-04-17T03:39:03.130Z,25.05
2023-04-17T03:40:03.190Z,25.04
2023-04-17T03:41:03.264Z,25.02
2023-04-17T03:42:03.346Z,25.02
2023-04-17T03:43:03.435Z,24.99
2023-04-17T03:44:03.475Z,25.02
2023-04-17T03:45:03.567Z,24.98
2023-04-17T03:46:03.673Z,24.98
2023-04-17T03:47:03.719Z,24.96
2023-04-17T03:48:03.865Z,24.92
2023-04-17T03:49:03.877Z,24.92
2023-04-17T03:50:03.960Z,24.92
2023-04-17T03:51:04.039Z,24.91
2023-04-17T03:52:04.121Z,24.89
2023-04-17T03:53:04.205Z,24.89
2023-04-17T03:54:04.285Z,24.89
2023-04-17T03:55:04.376Z,24.87
2023-04-17T03:56:04.456Z,24.87
2023-04-17T03:57:04.547Z,24.85
2023-04-17T03:58:04.623Z,24.88
2023-04-17T03:59:04.705Z,24.87
2023-04-17T04:00:04.782Z,24.84
2023-04-17T04:01:04.863Z,24.82
2023-04-17T04:02:05.004Z,24.82
2023-04-17T04:03:05.373Z,24.81
2023-04-17T04:04:05.312Z,24.79
2023-04-17T04:05:05.263Z,24.79
2023-04-17T04:06:05.227Z,24.78
2023-04-17T04:07:05.260Z,24.77
2023-04-17T04:08:05.263Z,24.77
2023-04-17T04:09:05.294Z,24.77
2023-04-17T04:10:05.302Z,24.75
2023-04-17T04:11:05.330Z,24.74
2023-04-17T04:12:05.350Z,24.74
2023-04-17T04:13:05.363Z,24.71
2023-04-17T04:14:05.367Z,24.72
2023-04-17T04:15:05.444Z,24.74
2023-04-17T04:16:05.586Z,24.71
2023-04-17T04:17:05.616Z,24.72
2023-04-17T04:18:05.768Z,24.71
2023-04-17T04:19:05.755Z,24.70
2023-04-17T04:20:05.829Z,24.67
2023-04-17T04:21:05.913Z,24.68
2023-04-17T04:22:06.964Z,24.68
2023-04-17T04:23:06.037Z,24.67
2023-04-17T04:24:06.092Z,24.66
2023-04-17T04:25:06.146Z,24.66
2023-04-17T04:26:06.210Z,24.64
2023-04-17T04:27:06.312Z,24.66
2023-04-17T04:28:06.413Z,24.66
2023-04-17T04:29:06.484Z,24.64
2023-04-17T04:30:06.562Z,24.64
2023-04-17T04:31:06.643Z,24.64
2023-04-17T04:32:06.713Z,24.64
2023-04-17T04:33:06.854Z,24.64
2023-04-17T04:34:06.870Z,24.61
2023-04-17T04:35:06.921Z,24.61
2023-04-17T04:36:06.964Z,24.60
2023-04-17T04:37:07.023Z,24.60
2023-04-17T04:38:07.073Z,24.63
2023-04-17T04:39:07.117Z,24.60
2023-04-17T04:40:07.170Z,24.57
2023-04-17T04:41:07.259Z,24.61
2023-04-17T04:42:07.311Z,24.59
2023-04-17T04:43:07.388Z,24.57
2023-04-17T04:44:07.439Z,24.57
2023-04-17T04:45:07.499Z,24.57
2023-04-17T04:46:07.558Z,24.57
2023-04-17T04:47:07.677Z,24.54
2023-04-17T04:48:07.747Z,24.54
2023-04-17T04:49:07.735Z,24.54
2023-04-17T04:50:07.770Z,24.56
2023-04-17T04:51:07.816Z,24.54
2023-04-17T04:52:07.881Z,24.54
2023-04-17T04:53:07.946Z,24.53
2023-04-17T04:54:07.978Z,24.51
2023-04-17T04:55:08.061Z,24.51
2023-04-17T04:56:08.090Z,24.51
2023-04-17T04:57:08.150Z,24.50
2023-04-17T04:58:08.202Z,24.51
2023-04-17T04:59:08.237Z,24.51
2023-04-17T05:00:08.296Z,24.51
2023-04-17T05:01:08.464Z,24.49
2023-04-17T05:02:08.486Z,24.49
2023-04-17T05:03:08.699Z,24.49
2023-04-17T05:04:08.599Z,24.49
2023-04-17T05:05:08.704Z,24.47
2023-04-17T05:06:08.647Z,24.49
2023-04-17T05:07:08.693Z,24.47
2023-04-17T05:08:08.749Z,24.46
2023-04-17T05:09:08.843Z,24.44
2023-04-17T05:10:08.915Z,24.46
2023-04-17T05:11:08.956Z,24.44
2023-04-17T05:12:09.018Z,24.47
2023-04-17T05:13:09.069Z,24.46
2023-04-17T05:14:09.135Z,24.49
2023-04-17T05:15:09.195Z,24.50
2023-04-17T05:16:09.275Z,24.50
2023-04-17T05:17:09.304Z,24.53
2023-04-17T05:18:09.349Z,24.56
2023-04-17T05:19:09.638Z,24.57
2023-04-17T05:20:09.461Z,24.57
2023-04-17T05:21:09.500Z,24.57
2023-04-17T05:22:09.560Z,24.59
2023-04-17T05:23:09.634Z,24.59
2023-04-17T05:24:09.658Z,24.60
2023-04-17T05:25:09.724Z,24.63
2023-04-17T05:26:09.796Z,24.63
2023-04-17T05:27:09.832Z,24.64
2023-04-17T05:28:09.912Z,24.64
2023-04-17T05:29:10.193Z,24.67
2023-04-17T05:30:10.018Z,24.67
2023-04-17T05:31:10.129Z,24.67
2023-04-17T05:32:10.081Z,24.68
2023-04-17T05:33:10.171Z,24.41
2023-04-17T05:34:10.402Z,24.39
2023-04-17T05:35:10.116Z,24.40
2023-04-17T05:36:10.126Z,23.44
2023-04-17T05:37:10.137Z,23.56
2023-04-17T05:38:10.171Z,23.65
2023-04-17T05:39:10.407Z,23.72
2023-04-17T05:40:10.205Z,23.75
2023-04-17T05:41:10.257Z,23.82
2023-04-17T05:42:10.243Z,23.86
2023-04-17T05:43:10.246Z,23.95
2023-04-17T05:44:10.284Z,24.01
2023-04-17T05:45:10.302Z,24.09
2023-04-17T05:46:10.374Z,24.13
2023-04-17T05:47:10.365Z,24.17
2023-04-17T05:48:10.387Z,24.27
2023-04-17T05:49:10.583Z,24.33
2023-04-17T05:50:10.451Z,24.36
2023-04-17T05:51:10.456Z,24.43
2023-04-17T05:52:10.465Z,24.51
2023-04-17T05:53:10.496Z,24.59
2023-04-17T05:54:10.506Z,24.59
2023-04-17T05:55:10.533Z,24.57
2023-04-17T05:56:10.548Z,24.33
2023-04-17T05:57:10.559Z,24.33
2023-04-17T05:58:23.225Z,24.24
2023-04-17T05:59:11.813Z,24.11
2023-04-17T06:00:10.629Z,24.11
2023-04-17T06:01:10.653Z,24.11
2023-04-17T06:02:10.791Z,24.05
2023-04-17T06:03:10.817Z,23.94
2023-04-17T06:04:10.919Z,23.74
2023-04-17T06:05:10.987Z,23.16
2023-04-17T06:06:10.801Z,23.34
2023-04-17T06:07:10.840Z,23.41
2023-04-17T06:08:10.889Z,23.41
2023-04-17T06:09:11.147Z,23.44
2023-04-17T06:10:10.925Z,23.51
2023-04-17T06:11:10.957Z,23.56
2023-04-17T06:12:10.992Z,23.67
2023-04-17T06:13:10.995Z,23.68
2023-04-17T06:14:11.033Z,23.79
2023-04-17T06:15:11.088Z,23.85
2023-04-17T06:16:11.107Z,23.92
2023-04-17T06:17:11.237Z,24.01
2023-04-17T06:18:11.166Z,24.05
2023-04-17T06:19:11.449Z,24.12
2023-04-17T06:20:11.271Z,24.20
2023-04-17T06:21:11.319Z,24.24
2023-04-17T06:22:11.379Z,24.32
2023-04-17T06:23:11.433Z,24.37
2023-04-17T06:24:11.498Z,24.40
2023-04-17T06:25:11.544Z,24.44
2023-04-17T06:26:11.633Z,24.47
2023-04-17T06:27:11.692Z,24.46
2023-04-17T06:28:11.785Z,24.49
2023-04-17T06:29:12.094Z,24.47
2023-04-17T06:30:11.894Z,24.46
2023-04-17T06:31:11.993Z,24.47
2023-04-17T06:32:12.009Z,24.46
2023-04-17T06:33:12.035Z,24.44
2023-04-17T06:34:12.084Z,24.46
2023-04-17T06:35:12.125Z,24.41
2023-04-17T06:36:12.182Z,24.41
2023-04-17T06:37:12.200Z,24.40
2023-04-17T06:38:12.252Z,24.37
2023-04-17T06:39:12.508Z,24.37
2023-04-17T06:40:12.496Z,24.37
2023-04-17T06:41:12.319Z,24.34
2023-04-17T06:42:12.340Z,24.32
2023-04-17T06:43:12.383Z,24.32
2023-04-17T06:44:12.453Z,24.27
2023-04-17T06:45:12.405Z,24.34
2023-04-17T06:46:12.445Z,24.36
2023-04-17T06:47:12.452Z,24.41
2023-04-17T06:48:12.464Z,24.43
2023-04-17T06:49:12.761Z,24.50
2023-04-17T06:50:12.525Z,24.54
2023-04-17T06:51:12.529Z,24.57
2023-04-17T06:52:12.560Z,24.66
2023-04-17T06:53:12.561Z,24.68
2023-04-17T06:54:12.573Z,24.71
2023-04-17T06:55:12.618Z,24.78
2023-04-17T06:56:12.610Z,24.81
2023-04-17T06:57:12.638Z,24.82
2023-04-17T06:58:12.674Z,24.88
2023-04-17T06:59:12.832Z,24.92
2023-04-17T07:00:12.717Z,24.95
2023-04-17T07:01:12.765Z,24.98
2023-04-17T07:02:12.809Z,25.01
2023-04-17T07:03:12.845Z,25.02
2023-04-17T07:04:12.882Z,25.08
2023-04-17T07:05:12.792Z,25.11
2023-04-17T07:06:12.817Z,25.14
2023-04-17T07:07:12.827Z,25.14
2023-04-17T07:08:12.848Z,25.18
2023-04-17T07:09:13.077Z,25.19
2023-04-17T07:10:12.949Z,25.16
2023-04-17T07:11:12.914Z,25.19
2023-04-17T07:12:12.914Z,25.19
2023-04-17T07:13:12.947Z,25.22
2023-04-17T07:14:13.177Z,25.22
2023-04-17T07:15:12.980Z,25.26
2023-04-17T07:16:12.971Z,25.28
2023-04-17T07:17:12.978Z,25.32
2023-04-17T07:18:13.003Z,25.32
2023-04-17T07:19:13.261Z,25.34
2023-04-17T07:20:13.060Z,25.37
2023-04-17T07:21:13.090Z,25.39
2023-04-17T07:22:13.120Z,25.42
2023-04-17T07:23:13.173Z,25.42
2023-04-17T07:24:13.186Z,25.43
2023-04-17T07:25:13.208Z,25.46
2023-04-17T07:26:13.244Z,25.47
2023-04-17T07:27:13.272Z,25.50
2023-04-17T07:28:13.336Z,25.52
2023-04-17T07:29:13.639Z,25.54
2023-04-17T07:30:13.338Z,25.57
2023-04-17T07:31:13.402Z,25.56
2023-04-17T07:32:13.360Z,25.59
2023-04-17T07:33:13.391Z,25.60
2023-04-17T07:34:13.388Z,25.64
2023-04-17T07:35:13.414Z,25.60
2023-04-17T07:36:13.571Z,25.64
2023-04-17T07:37:13.461Z,25.67
2023-04-17T07:38:13.486Z,25.67
2023-04-17T07:39:13.731Z,25.71
2023-04-17T07:40:13.639Z,25.70
2023-04-17T07:41:13.561Z,25.73
2023-04-17T07:42:13.594Z,25.71
2023-04-17T07:43:13.631Z,25.73
2023-04-17T07:44:13.660Z,25.73
2023-04-17T07:45:13.679Z,25.74
2023-04-17T07:46:13.758Z,25.74
2023-04-17T07:47:13.785Z,25.74
2023-04-17T07:48:13.772Z,25.73
2023-04-17T07:49:14.158Z,25.76
2023-04-17T07:50:13.780Z,25.73
2023-04-17T07:51:13.788Z,25.74
2023-04-17T07:52:13.832Z,25.74
2023-04-17T07:53:13.893Z,25.74
2023-04-17T07:54:13.937Z,25.73
2023-04-17T07:55:14.003Z,25.74
2023-04-17T07:56:14.018Z,25.76
2023-04-17T07:57:14.049Z,25.73
2023-04-17T07:58:14.092Z,25.73
2023-04-17T07:59:14.416Z,25.73
2023-04-17T08:00:14.113Z,25.74
2023-04-17T08:01:14.142Z,25.74
2023-04-17T08:02:14.248Z,25.74
2023-04-17T08:03:14.311Z,25.73
2023-04-17T08:04:14.323Z,25.73
2023-04-17T08:05:14.248Z,25.76
2023-04-17T08:06:14.264Z,25.76
2023-04-17T08:07:14.205Z,25.80
2023-04-17T08:08:14.259Z,25.79
2023-04-17T08:09:14.427Z,25.81
2023-04-17T08:10:14.232Z,25.83
2023-04-17T08:11:14.259Z,25.83
2023-04-17T08:12:14.268Z,25.85
2023-04-17T08:13:14.276Z,25.87
2023-04-17T08:14:14.276Z,25.87
2023-04-17T08:15:14.290Z,25.88
2023-04-17T08:16:14.472Z,25.90
2023-04-17T08:17:14.307Z,25.92
2023-04-17T08:18:14.330Z,25.94
2023-04-17T08:19:14.628Z,25.94
2023-04-17T08:20:14.365Z,25.95
2023-04-17T08:21:14.415Z,25.97
2023-04-17T08:22:14.457Z,25.98
2023-04-17T08:23:14.522Z,26.01
2023-04-17T08:24:14.968Z,25.99
2023-04-17T08:25:14.489Z,26.01
2023-04-17T08:26:14.499Z,26.01
2023-04-17T08:27:14.572Z,26.02
2023-04-17T08:28:14.529Z,26.07
2023-04-17T08:29:14.842Z,25.99
2023-04-17T08:30:17.838Z,26.01
2023-04-17T08:31:14.600Z,26.05
2023-04-17T08:32:15.578Z,26.04
2023-04-17T08:33:14.599Z,26.05
2023-04-17T08:34:15.555Z,26.04
2023-04-17T08:35:14.581Z,26.02
2023-04-17T08:36:14.610Z,26.01
2023-04-17T08:37:14.621Z,26.01
2023-04-17T08:38:14.639Z,25.98
2023-04-17T08:39:15.028Z,25.97
2023-04-17T08:40:14.650Z,25.95
2023-04-17T08:41:14.650Z,25.92
2023-04-17T08:42:18.518Z,25.91
2023-04-17T08:43:14.688Z,25.88
2023-04-17T08:44:14.697Z,25.88
2023-04-17T08:45:14.746Z,25.87
2023-04-17T08:46:14.779Z,25.84
2023-04-17T08:47:14.772Z,25.83
2023-04-17T08:48:14.798Z,25.81
2023-04-17T08:49:14.842Z,25.71
2023-04-17T08:50:14.801Z,25.76
2023-04-17T08:51:14.809Z,25.73
2023-04-17T08:52:14.802Z,25.73
2023-04-17T08:53:14.877Z,25.73
2023-04-17T08:54:14.844Z,25.73
2023-04-17T08:55:14.850Z,25.71
2023-04-17T08:56:14.857Z,25.73
2023-04-17T08:57:14.877Z,25.76
2023-04-17T08:58:14.883Z,25.73
2023-04-17T08:59:14.904Z,25.77
2023-04-17T09:00:14.935Z,25.79
2023-04-17T09:01:14.954Z,25.77
2023-04-17T09:02:15.131Z,25.76
2023-04-17T09:03:15.058Z,25.77
2023-04-17T09:04:15.246Z,25.77
2023-04-17T09:05:14.998Z,25.79
2023-04-17T09:06:14.995Z,25.80
2023-04-17T09:07:15.026Z,25.79
2023-04-17T09:08:15.076Z,25.80
2023-04-17T09:09:15.085Z,25.79
2023-04-17T09:10:15.105Z,25.81
2023-04-17T09:11:15.114Z,25.81
2023-04-17T09:12:15.145Z,25.83
2023-04-17T09:13:15.154Z,25.84
2023-04-17T09:14:15.170Z,25.83
2023-04-17T09:15:15.203Z,25.84
2023-04-17T09:16:15.284Z,25.83
2023-04-17T09:17:15.228Z,25.84
2023-04-17T09:18:15.300Z,25.85
2023-04-17T09:19:15.355Z,25.84
2023-04-17T09:20:15.406Z,25.85
2023-04-17T09:21:15.472Z,25.85
2023-04-17T09:22:15.551Z,25.88
2023-04-17T09:23:15.643Z,25.84
2023-04-17T09:24:15.720Z,25.85
2023-04-17T09:25:15.784Z,25.87
2023-04-17T09:26:15.851Z,25.88
2023-04-17T09:27:15.907Z,25.88
2023-04-17T09:28:15.972Z,25.91
2023-04-17T09:29:16.339Z,25.88
2023-04-17T09:30:16.068Z,25.92
2023-04-17T09:31:16.212Z,25.90
2023-04-17T09:32:16.348Z,25.91
2023-04-17T09:33:16.341Z,25.90
2023-04-17T09:34:16.641Z,25.91
2023-04-17T09:35:16.545Z,25.92
2023-04-17T09:36:16.666Z,25.98
2023-04-17T09:37:16.668Z,25.97
2023-04-17T09:38:16.729Z,26.01
2023-04-17T09:39:16.742Z,26.01
2023-04-17T09:40:16.781Z,26.05
2023-04-17T09:41:16.782Z,26.04
2023-04-17T09:42:16.787Z,26.07
2023-04-17T09:43:16.802Z,26.05
2023-04-17T09:44:16.833Z,26.11
2023-04-17T09:45:16.827Z,26.07
2023-04-17T09:46:16.836Z,26.12
2023-04-17T09:47:16.844Z,26.14
2023-04-17T09:48:16.888Z,26.14
2023-04-17T09:49:17.025Z,26.19
2023-04-17T09:50:17.033Z,26.19
2023-04-17T09:51:17.098Z,26.24
2023-04-17T09:52:17.174Z,26.28
2023-04-17T09:53:17.234Z,26.26
2023-04-17T09:54:17.231Z,26.28
2023-04-17T09:55:17.266Z,26.31
2023-04-17T09:56:17.233Z,26.31
2023-04-17T09:57:17.254Z,26.29
2023-04-17T09:58:17.260Z,26.32
2023-04-17T09:59:17.280Z,26.28
2023-04-17T10:00:17.321Z,26.29
2023-04-17T10:01:17.341Z,26.29
2023-04-17T10:02:17.389Z,26.28
2023-04-17T10:03:17.528Z,26.28
2023-04-17T10:04:17.943Z,26.29
2023-04-17T10:05:17.406Z,26.28
2023-04-17T10:06:17.459Z,26.28
2023-04-17T10:07:17.521Z,26.29
2023-04-17T10:08:17.513Z,26.28
2023-04-17T10:09:17.537Z,26.29
2023-04-17T10:10:17.586Z,26.26
2023-04-17T10:11:17.558Z,26.26
2023-04-17T10:12:17.616Z,26.25
2023-04-17T10:13:17.610Z,26.26
2023-04-17T10:14:17.593Z,26.26
2023-04-17T10:15:17.603Z,26.25
2023-04-17T10:16:17.617Z,26.22
2023-04-17T10:17:17.612Z,26.15
2023-04-17T10:18:17.675Z,26.15
2023-04-17T10:19:17.753Z,26.14
2023-04-17T10:20:17.873Z,26.17
2023-04-17T10:21:17.856Z,26.05
2023-04-17T10:22:17.831Z,25.99
2023-04-17T10:23:17.840Z,25.99
2023-04-17T10:24:17.981Z,25.97
2023-04-17T10:25:17.869Z,25.95
2023-04-17T10:26:17.889Z,25.97
2023-04-17T10:27:17.880Z,25.92
2023-04-17T10:28:17.884Z,25.95
2023-04-17T10:29:17.917Z,25.90
2023-04-17T10:30:17.919Z,25.94
2023-04-17T10:31:18.013Z,25.92
2023-04-17T10:32:18.116Z,25.94
2023-04-17T10:33:18.167Z,25.94
2023-04-17T10:34:18.188Z,25.95
2023-04-17T10:35:18.283Z,25.97
2023-04-17T10:36:18.331Z,25.97
2023-04-17T10:37:18.437Z,25.99
2023-04-17T10:38:18.495Z,25.99
2023-04-17T10:39:18.564Z,26.04
2023-04-17T10:40:18.605Z,26.07
2023-04-17T10:41:18.692Z,26.02
2023-04-17T10:42:18.759Z,26.04
2023-04-17T10:43:18.835Z,26.08
2023-04-17T10:44:18.931Z,26.09
2023-04-17T10:45:18.975Z,26.15
2023-04-17T10:46:19.096Z,26.17
2023-04-17T10:47:19.255Z,26.19
2023-04-17T10:48:19.253Z,26.19
2023-04-17T10:49:19.270Z,26.22
2023-04-17T10:50:19.338Z,26.25
2023-04-17T10:51:19.412Z,26.24
2023-04-17T10:52:19.409Z,26.24
2023-04-17T10:53:19.414Z,26.24
2023-04-17T10:54:19.429Z,26.26
2023-04-17T10:55:19.409Z,26.26
2023-04-17T10:56:19.418Z,26.28
2023-04-17T10:57:19.423Z,26.28
2023-04-17T10:58:19.448Z,26.29
2023-04-17T10:59:19.455Z,26.32
2023-04-17T11:00:19.474Z,26.31
2023-04-17T11:01:19.516Z,26.29
2023-04-17T11:02:19.603Z,26.34
2023-04-17T11:03:19.714Z,26.32
2023-04-17T11:04:19.764Z,26.35
2023-04-17T11:05:19.756Z,26.31
2023-04-17T11:06:19.899Z,26.35
2023-04-17T11:07:19.938Z,26.34
2023-04-17T11:08:19.969Z,26.34
2023-04-17T11:09:20.037Z,26.34
2023-04-17T11:10:20.102Z,26.38
2023-04-17T11:11:26.968Z,26.38
2023-04-17T11:12:21.173Z,26.39
2023-04-17T11:13:20.194Z,26.39
2023-04-17T11:14:20.240Z,26.36
2023-04-17T11:15:20.245Z,26.35
2023-04-17T11:16:20.253Z,26.35
2023-04-17T11:17:20.309Z,26.34
2023-04-17T11:18:20.254Z,26.32
2023-04-17T11:19:20.274Z,26.32
2023-04-17T11:20:20.275Z,26.32
2023-04-17T11:21:20.307Z,26.31
2023-04-17T11:22:20.323Z,26.31
2023-04-17T11:23:20.412Z,26.31
2023-04-17T11:24:20.466Z,26.29
2023-04-17T11:25:20.540Z,26.32
2023-04-17T11:26:20.601Z,26.29
2023-04-17T11:27:20.670Z,26.28
2023-04-17T11:28:20.735Z,26.29
2023-04-17T11:29:20.808Z,26.29
2023-04-17T11:30:20.887Z,26.31
2023-04-17T11:31:21.620Z,26.32
2023-04-17T11:32:21.038Z,26.34
2023-04-17T11:33:21.083Z,26.32
2023-04-17T11:34:21.136Z,26.35
2023-04-17T11:35:21.202Z,26.32
2023-04-17T11:36:21.367Z,26.29
2023-04-17T11:37:21.335Z,26.29
2023-04-17T11:38:21.899Z,26.28
2023-04-17T11:39:21.493Z,26.25
2023-04-17T11:40:21.574Z,26.22
2023-04-17T11:41:21.633Z,26.22
2023-04-17T11:42:21.706Z,26.22
2023-04-17T11:43:21.774Z,26.21
2023-04-17T11:44:21.876Z,26.17
2023-04-17T11:45:21.914Z,26.17
2023-04-17T11:46:22.008Z,26.12
2023-04-17T11:47:22.127Z,26.14
2023-04-17T11:48:22.164Z,26.14
2023-04-17T11:49:22.230Z,26.12
2023-04-17T11:50:22.314Z,26.15
2023-04-17T11:51:22.384Z,26.12
2023-04-17T11:52:22.445Z,26.12
2023-04-17T11:53:23.238Z,26.11
2023-04-17T11:54:22.573Z,26.12
2023-04-17T11:55:22.656Z,26.14
2023-04-17T11:56:22.718Z,26.12
2023-04-17T11:57:22.796Z,26.17
2023-04-17T11:58:22.861Z,26.15
2023-04-17T11:59:22.924Z,26.14
2023-04-17T12:00:22.982Z,26.19
2023-04-17T12:01:23.090Z,26.18
2023-04-17T12:02:23.233Z,26.21
2023-04-17T12:03:23.278Z,26.22
2023-04-17T12:04:23.335Z,26.19
2023-04-17T12:05:23.434Z,26.22
2023-04-17T12:06:23.405Z,26.19
2023-04-17T12:07:23.487Z,26.22
2023-04-17T12:08:23.544Z,26.21
2023-04-17T12:09:23.623Z,26.22
2023-04-17T12:10:23.682Z,26.21
2023-04-17T12:11:23.778Z,26.18
2023-04-17T12:12:23.830Z,26.21
2023-04-17T12:13:23.906Z,26.18
2023-04-17T12:14:26.216Z,26.18
2023-04-17T12:15:24.041Z,26.18
2023-04-17T12:16:24.165Z,26.18
2023-04-17T12:17:24.303Z,26.17
2023-04-17T12:18:24.267Z,26.18
2023-04-17T12:19:24.346Z,26.15
2023-04-17T12:20:26.577Z,26.17
2023-04-17T12:21:24.437Z,26.17
2023-04-17T12:22:24.468Z,26.18
2023-04-17T12:23:24.524Z,26.18
2023-04-17T12:24:24.593Z,26.19
2023-04-17T12:25:24.674Z,26.18
2023-04-17T12:26:24.752Z,26.18
2023-04-17T12:27:24.799Z,26.18
2023-04-17T12:28:24.875Z,26.21
2023-04-17T12:29:36.874Z,26.19
2023-04-17T12:30:25.962Z,26.22
2023-04-17T12:31:24.986Z,26.19
2023-04-17T12:32:24.999Z,26.21
2023-04-17T12:33:24.994Z,26.18
2023-04-17T12:34:26.602Z,26.19
2023-04-17T12:35:25.031Z,26.18
2023-04-17T12:36:25.078Z,26.18
2023-04-17T12:37:25.056Z,26.21
2023-04-17T12:38:25.072Z,26.18
2023-04-17T12:39:25.201Z,26.19
2023-04-17T12:40:25.110Z,26.21
2023-04-17T12:41:25.134Z,26.19
2023-04-17T12:42:25.882Z,26.22
2023-04-17T12:43:25.139Z,26.19
2023-04-17T12:44:25.175Z,26.21
2023-04-17T12:45:25.236Z,26.19
2023-04-17T12:46:25.232Z,26.21
2023-04-17T12:47:25.269Z,26.19
2023-04-17T12:48:25.240Z,26.21
2023-04-17T12:49:25.258Z,26.22
2023-04-17T12:50:25.259Z,26.21
2023-04-17T12:51:25.279Z,26.22
2023-04-17T12:52:25.289Z,26.22
2023-04-17T12:53:25.287Z,26.21